createdAt,value
2019-02-25T00:00:07.308Z,49.70
2019-02-25T00:02:39.495Z,49.83
2019-02-25T00:05:11.347Z,50.03
2019-02-25T00:07:42.873Z,50.16
2019-02-25T00:10:14.631Z,50.27
2019-02-25T00:12:46.497Z,50.95
2019-02-25T00:15:18.059Z,51.11
2019-02-25T00:17:49.764Z,51.45
2019-02-25T00:20:21.473Z,51.88
2019-02-25T00:22:53.055Z,52.00
2019-02-25T00:25:24.864Z,52.03
2019-02-25T00:27:56.684Z,52.21
2019-02-25T00:30:28.404Z,52.09
2019-02-25T00:33:00.013Z,52.53
2019-02-25T00:35:31.801Z,52.60
2019-02-25T00:38:03.470Z,52.43
2019-02-25T00:40:35.346Z,52.45
2019-02-25T00:43:06.910Z,52.97
2019-02-25T00:45:38.582Z,53.68
2019-02-25T00:48:10.664Z,54.49
2019-02-25T00:50:42.649Z,53.10
2019-02-25T00:53:14.489Z,49.78
2019-02-25T00:55:46.330Z,51.73
2019-02-25T00:58:17.918Z,52.26
2019-02-25T01:00:49.494Z,52.97
2019-02-25T01:03:21.119Z,53.84
2019-02-25T01:05:52.712Z,54.90
2019-02-25T01:08:24.358Z,54.90
2019-02-25T01:10:58.865Z,53.63
2019-02-25T01:13:30.610Z,53.16
2019-02-25T01:16:02.322Z,55.30
2019-02-25T01:18:34.242Z,55.96
2019-02-25T01:21:06.170Z,56.49
2019-02-25T01:23:37.976Z,55.72
2019-02-25T01:26:09.817Z,56.19
2019-02-25T01:28:41.491Z,55.47
2019-02-25T01:31:13.394Z,55.43
2019-02-25T01:33:45.087Z,55.92
2019-02-25T01:36:17.611Z,55.96
2019-02-25T01:38:49.260Z,55.91
2019-02-25T01:41:21.782Z,56.75
2019-02-25T01:43:53.287Z,55.79
2019-02-25T01:46:25.376Z,55.93
2019-02-25T01:48:57.100Z,55.55
2019-02-25T01:51:28.768Z,54.38
2019-02-25T01:54:00.529Z,54.48
2019-02-25T01:56:32.324Z,54.88
2019-02-25T01:59:03.933Z,55.64
2019-02-25T02:01:35.515Z,55.54
2019-02-25T02:04:07.076Z,56.18
2019-02-25T02:06:38.728Z,56.51
2019-02-25T02:09:11.265Z,57.12
2019-02-25T02:11:42.936Z,57.34
2019-02-25T02:14:14.731Z,57.25
2019-02-25T02:16:46.336Z,56.33
2019-02-25T02:19:17.896Z,53.63
2019-02-25T02:21:49.480Z,52.80
2019-02-25T02:24:21.061Z,52.45
2019-02-25T02:26:52.640Z,52.33
2019-02-25T02:29:24.347Z,52.12
2019-02-25T02:31:55.998Z,52.38
2019-02-25T02:34:27.682Z,51.94
2019-02-25T02:36:59.398Z,52.10
2019-02-25T02:39:30.989Z,52.47
2019-02-25T02:42:17.638Z,52.06
2019-02-25T02:45:09.502Z,52.82
2019-02-25T02:48:28.715Z,52.79
2019-02-25T02:51:00.288Z,52.78
2019-02-25T02:53:32.035Z,52.69
2019-02-25T02:56:03.740Z,52.25
2019-02-25T02:58:35.364Z,52.59
2019-02-25T03:01:07.031Z,53.62
2019-02-25T03:03:38.812Z,54.22
2019-02-25T03:06:10.440Z,55.42
2019-02-25T03:08:42.020Z,56.21
2019-02-25T03:11:13.723Z,56.59
2019-02-25T03:13:45.570Z,57.26
2019-02-25T03:16:17.494Z,57.73
2019-02-25T03:18:49.200Z,58.08
2019-02-25T03:21:20.996Z,58.11
2019-02-25T03:23:52.591Z,58.24
2019-02-25T03:26:24.184Z,58.42
2019-02-25T03:28:55.806Z,59.02
2019-02-25T03:31:27.474Z,59.36
2019-02-25T03:33:59.124Z,59.68
2019-02-25T03:36:30.890Z,60.16
2019-02-25T03:39:03.351Z,60.43
2019-02-25T03:41:35.442Z,60.04
2019-02-25T03:44:08.275Z,60.31
2019-02-25T03:46:39.995Z,60.91
2019-02-25T03:49:12.506Z,61.46
2019-02-25T03:51:44.184Z,62.03
2019-02-25T03:54:16.439Z,62.17
2019-02-25T03:56:48.127Z,61.41
2019-02-25T03:59:19.715Z,60.27
2019-02-25T04:01:51.376Z,59.11
2019-02-25T04:04:22.903Z,58.14
2019-02-25T04:06:54.578Z,57.27
2019-02-25T04:09:26.147Z,56.46
2019-02-25T04:11:57.795Z,55.44
2019-02-25T04:14:29.251Z,55.17
2019-02-25T04:17:00.880Z,54.07
2019-02-25T04:19:32.542Z,53.27
2019-02-25T04:22:04.245Z,53.86
2019-02-25T04:24:36.137Z,55.60
2019-02-25T04:27:07.568Z,57.36
2019-02-25T04:29:39.266Z,59.53
2019-02-25T04:32:10.935Z,61.49
2019-02-25T04:34:42.618Z,62.92
2019-02-25T04:37:14.257Z,64.10
2019-02-25T04:39:45.912Z,65.75
2019-02-25T04:42:17.717Z,67.04
2019-02-25T04:44:51.254Z,67.97
2019-02-25T04:47:23.006Z,68.92
2019-02-25T04:49:54.447Z,69.72
2019-02-25T04:52:26.081Z,70.36
2019-02-25T04:54:57.778Z,71.17
2019-02-25T04:57:29.370Z,71.64
2019-02-25T05:00:01.123Z,71.81
2019-02-25T05:02:32.970Z,72.23
2019-02-25T05:05:04.693Z,72.70
2019-02-25T05:07:36.293Z,73.09
2019-02-25T05:10:09.330Z,73.33
2019-02-25T05:12:42.755Z,73.87
2019-02-25T05:15:16.826Z,74.43
2019-02-25T05:18:07.385Z,74.79
2019-02-25T05:20:39.039Z,74.74
2019-02-25T05:23:10.675Z,75.05
2019-02-25T05:25:42.528Z,75.13
2019-02-25T05:28:14.197Z,75.89
2019-02-25T05:30:45.971Z,75.49
2019-02-25T05:33:17.605Z,74.65
2019-02-25T05:35:49.557Z,73.34
2019-02-25T05:38:21.444Z,72.12
2019-02-25T05:40:53.059Z,71.48
2019-02-25T05:43:24.788Z,71.19
2019-02-25T05:45:56.422Z,70.73
2019-02-25T05:48:28.409Z,71.06
2019-02-25T05:51:00.270Z,71.72
2019-02-25T05:53:32.056Z,72.16
2019-02-25T05:56:03.817Z,72.65
2019-02-25T05:58:35.368Z,72.82
2019-02-25T06:01:11.216Z,72.95
2019-02-25T06:03:42.994Z,73.25
2019-02-25T06:06:14.648Z,73.35
2019-02-25T06:08:46.577Z,73.57
2019-02-25T06:11:18.235Z,74.05
2019-02-25T06:13:49.980Z,74.45
2019-02-25T06:16:21.857Z,74.73
2019-02-25T06:18:53.406Z,74.85
2019-02-25T06:21:28.556Z,74.82
2019-02-25T06:24:00.183Z,74.26
2019-02-25T06:26:31.884Z,74.55
2019-02-25T06:29:03.702Z,74.74
2019-02-25T06:31:35.246Z,69.47
2019-02-25T06:34:06.907Z,63.94
2019-02-25T06:36:38.511Z,59.51
2019-02-25T06:39:10.449Z,56.10
2019-02-25T06:41:42.106Z,52.38
2019-02-25T06:44:13.687Z,50.37
2019-02-25T06:46:45.507Z,47.90
2019-02-25T06:49:17.272Z,46.97
2019-02-25T06:51:48.974Z,45.92
2019-02-25T06:54:20.792Z,44.26
2019-02-25T06:56:54.466Z,42.31
2019-02-25T06:59:26.245Z,41.45
2019-02-25T07:01:57.920Z,40.44
2019-02-25T07:04:48.213Z,39.47
2019-02-25T07:07:24.718Z,38.39
2019-02-25T07:10:32.882Z,37.47
2019-02-25T07:13:15.791Z,36.50
2019-02-25T07:16:09.051Z,35.68
2019-02-25T07:19:03.247Z,35.79
2019-02-25T07:21:53.026Z,34.29
2019-02-25T07:24:52.433Z,33.75
2019-02-25T07:27:48.092Z,32.71
2019-02-25T07:30:54.161Z,31.04
2019-02-25T07:33:41.876Z,29.69
2019-02-25T07:36:33.596Z,29.22
2019-02-25T07:39:34.516Z,29.77
2019-02-25T07:42:22.884Z,30.54
2019-02-25T07:45:34.026Z,31.87
2019-02-25T07:48:24.724Z,31.72
2019-02-25T07:51:15.935Z,34.51
2019-02-25T07:54:12.702Z,37.29
2019-02-25T07:57:13.760Z,39.85
2019-02-25T08:00:21.448Z,42.17
2019-02-25T08:03:18.774Z,43.65
2019-02-25T08:06:18.037Z,44.23
2019-02-25T08:09:17.123Z,44.25
2019-02-25T08:12:08.774Z,43.54
2019-02-25T08:14:51.961Z,41.87
2019-02-25T08:17:46.314Z,39.95
2019-02-25T08:20:37.518Z,39.59
2019-02-25T08:23:27.604Z,39.93
2019-02-25T08:26:36.326Z,41.21
2019-02-25T08:29:26.482Z,41.74
2019-02-25T08:32:17.790Z,41.67
2019-02-25T08:35:10.226Z,41.36
2019-02-25T08:38:12.502Z,41.25
2019-02-25T08:41:45.011Z,41.22
2019-02-25T08:44:27.555Z,41.87
2019-02-25T08:47:18.526Z,41.32
2019-02-25T08:49:58.741Z,41.65
2019-02-25T08:52:33.460Z,41.70
2019-02-25T08:55:09.397Z,42.76
2019-02-25T08:57:45.125Z,42.17
2019-02-25T09:00:18.518Z,42.06
2019-02-25T09:02:53.774Z,41.22
2019-02-25T09:05:28.920Z,40.15
2019-02-25T09:08:03.110Z,39.11
2019-02-25T09:10:36.706Z,37.99
2019-02-25T09:13:09.693Z,37.28
2019-02-25T09:15:44.684Z,35.97
2019-02-25T09:18:18.164Z,32.81
2019-02-25T09:20:52.231Z,31.11
2019-02-25T09:23:27.299Z,30.61
2019-02-25T09:26:01.342Z,31.00
2019-02-25T09:28:36.635Z,30.68
2019-02-25T09:31:12.547Z,29.20
2019-02-25T09:33:49.939Z,28.16
2019-02-25T09:36:22.907Z,27.68
2019-02-25T09:39:00.561Z,28.50
2019-02-25T09:41:32.231Z,28.63
2019-02-25T09:44:04.304Z,28.75
2019-02-25T09:46:36.361Z,29.09
2019-02-25T09:49:09.281Z,28.83
2019-02-25T09:51:41.713Z,27.77
2019-02-25T09:54:13.622Z,28.08
2019-02-25T09:56:45.278Z,28.01
2019-02-25T09:59:17.103Z,29.45
2019-02-25T10:01:48.978Z,28.12
2019-02-25T10:04:20.608Z,27.60
2019-02-25T10:06:52.342Z,27.31
2019-02-25T10:09:29.877Z,27.02
2019-02-25T10:11:57.627Z,27.67
2019-02-25T10:14:29.486Z,26.40
2019-02-25T10:17:01.715Z,25.86
2019-02-25T10:19:34.811Z,25.01
2019-02-25T10:22:06.617Z,24.07
2019-02-25T10:24:39.862Z,23.43
2019-02-25T10:27:11.342Z,22.71
2019-02-25T10:29:43.159Z,23.28
2019-02-25T10:32:15.274Z,24.89
2019-02-25T10:34:47.347Z,24.77
2019-02-25T10:37:19.325Z,24.94
2019-02-25T10:39:51.547Z,24.26
2019-02-25T10:42:23.491Z,24.16
2019-02-25T10:44:55.439Z,23.85
2019-02-25T10:47:27.133Z,23.69
2019-02-25T10:50:00.716Z,24.24
2019-02-25T10:52:32.227Z,23.67
2019-02-25T10:55:03.937Z,23.06
2019-02-25T10:57:36.735Z,24.31
2019-02-25T11:00:11.670Z,23.71
2019-02-25T11:02:46.273Z,23.85
2019-02-25T11:05:19.091Z,27.00
2019-02-25T11:07:51.347Z,29.51
2019-02-25T11:10:31.845Z,31.53
2019-02-25T11:13:04.327Z,33.25
2019-02-25T11:15:39.651Z,33.51
2019-02-25T11:18:11.828Z,29.02
2019-02-25T11:20:43.535Z,27.06
2019-02-25T11:23:18.909Z,25.66
2019-02-25T11:25:51.507Z,25.94
2019-02-25T11:28:25.947Z,26.21
2019-02-25T11:30:57.576Z,24.73
2019-02-25T11:33:30.308Z,24.50
2019-02-25T11:36:03.191Z,23.95
2019-02-25T11:38:37.361Z,23.27
2019-02-25T11:41:11.130Z,23.15
2019-02-25T11:43:44.058Z,22.31
2019-02-25T11:46:16.003Z,21.80
2019-02-25T11:48:47.895Z,22.43
2019-02-25T11:51:19.603Z,25.53
2019-02-25T11:53:52.071Z,28.77
2019-02-25T11:56:23.875Z,31.20
2019-02-25T11:58:56.075Z,32.93
2019-02-25T12:01:27.560Z,33.70
2019-02-25T12:03:59.484Z,33.48
2019-02-25T12:06:31.475Z,33.46
2019-02-25T12:09:03.890Z,34.66
2019-02-25T12:11:35.550Z,35.41
2019-02-25T12:14:07.307Z,36.01
2019-02-25T12:16:39.268Z,33.76
2019-02-25T12:19:17.790Z,32.51
2019-02-25T12:21:44.760Z,29.91
2019-02-25T12:24:16.755Z,30.21
2019-02-25T12:26:48.752Z,28.87
2019-02-25T12:29:20.571Z,26.78
2019-02-25T12:31:52.426Z,25.91
2019-02-25T12:34:24.226Z,25.86
2019-02-25T12:36:55.967Z,26.88
2019-02-25T12:39:27.696Z,27.36
2019-02-25T12:41:59.685Z,28.09
2019-02-25T12:44:31.367Z,27.24
2019-02-25T12:47:03.190Z,27.86
2019-02-25T12:49:36.705Z,27.63
2019-02-25T12:52:08.688Z,27.71
2019-02-25T12:54:40.273Z,26.42
2019-02-25T12:57:13.004Z,25.50
2019-02-25T12:59:44.881Z,26.21
2019-02-25T13:02:17.523Z,25.45
2019-02-25T13:04:50.553Z,25.23
2019-02-25T13:07:22.638Z,26.96
2019-02-25T13:09:55.202Z,25.67
2019-02-25T13:12:29.800Z,25.45
2019-02-25T13:15:02.199Z,26.28
2019-02-25T13:17:34.342Z,26.35
2019-02-25T13:20:06.836Z,25.46
2019-02-25T13:22:39.169Z,25.13
2019-02-25T13:25:13.207Z,24.89
2019-02-25T13:27:45.185Z,25.07
2019-02-25T13:30:18.071Z,25.60
2019-02-25T13:32:49.840Z,25.73
2019-02-25T13:35:22.078Z,26.29
2019-02-25T13:37:53.877Z,25.89
2019-02-25T13:40:25.670Z,26.22
2019-02-25T13:42:57.820Z,25.82
2019-02-25T13:45:29.915Z,25.40
2019-02-25T13:48:01.753Z,25.67
2019-02-25T13:50:34.044Z,25.38
2019-02-25T13:53:06.073Z,25.43
2019-02-25T13:55:38.458Z,25.17
2019-02-25T13:58:10.184Z,25.27
2019-02-25T14:00:42.730Z,25.77
2019-02-25T14:03:19.515Z,25.45
2019-02-25T14:05:51.630Z,26.16
2019-02-25T14:08:23.638Z,26.27
2019-02-25T14:10:56.192Z,26.16
2019-02-25T14:13:28.844Z,26.68
2019-02-25T14:16:01.309Z,26.30
2019-02-25T14:18:33.604Z,25.79
2019-02-25T14:21:05.642Z,26.38
2019-02-25T14:23:38.269Z,26.37
2019-02-25T14:26:11.875Z,26.70
2019-02-25T14:28:43.829Z,28.62
2019-02-25T14:31:15.687Z,30.05
2019-02-25T14:33:52.060Z,30.65
2019-02-25T14:36:22.505Z,29.97
2019-02-25T14:38:56.246Z,31.03
2019-02-25T14:41:27.985Z,30.90
2019-02-25T14:44:00.461Z,30.09
2019-02-25T14:46:32.824Z,29.25
2019-02-25T14:49:08.092Z,29.08
2019-02-25T14:51:40.196Z,28.60
2019-02-25T14:54:11.939Z,28.90
2019-02-25T14:56:45.043Z,29.96
2019-02-25T14:59:20.321Z,30.04
2019-02-25T15:01:52.114Z,29.88
2019-02-25T15:04:24.335Z,29.94
2019-02-25T15:06:56.842Z,30.32
2019-02-25T15:09:30.788Z,29.76
2019-02-25T15:12:04.150Z,29.67
2019-02-25T15:14:36.598Z,28.88
2019-02-25T15:17:10.644Z,28.58
2019-02-25T15:19:43.761Z,28.66
2019-02-25T15:22:16.211Z,28.95
2019-02-25T15:24:50.255Z,29.38
2019-02-25T15:27:22.665Z,29.66
2019-02-25T15:29:55.331Z,29.99
2019-02-25T15:32:29.529Z,30.28
2019-02-25T15:35:01.678Z,31.03
2019-02-25T15:37:33.547Z,30.96
2019-02-25T15:40:09.850Z,31.02
2019-02-25T15:42:42.134Z,31.01
2019-02-25T15:45:17.964Z,31.62
2019-02-25T15:47:50.828Z,31.08
2019-02-25T15:50:24.935Z,31.80
2019-02-25T15:53:00.737Z,31.97
2019-02-25T15:55:32.030Z,32.06
2019-02-25T15:58:04.196Z,32.04
2019-02-25T16:00:39.641Z,32.13
2019-02-25T16:03:13.773Z,32.79
2019-02-25T16:05:46.559Z,33.85
2019-02-25T16:08:20.942Z,34.07
2019-02-25T16:10:53.369Z,33.50
2019-02-25T16:13:26.094Z,33.76
2019-02-25T16:15:58.097Z,33.85
2019-02-25T16:18:30.076Z,33.70
2019-02-25T16:21:02.653Z,34.20
2019-02-25T16:23:37.055Z,34.53
2019-02-25T16:26:10.706Z,35.02
2019-02-25T16:28:43.854Z,35.19
2019-02-25T16:31:16.610Z,35.63
2019-02-25T16:33:49.713Z,35.75
2019-02-25T16:36:24.438Z,36.17
2019-02-25T16:38:58.604Z,36.65
2019-02-25T16:41:32.351Z,37.30
2019-02-25T16:44:24.267Z,37.80
2019-02-25T16:46:56.602Z,37.91
2019-02-25T16:49:29.493Z,37.90
2019-02-25T16:52:03.537Z,38.19
2019-02-25T16:54:35.372Z,38.34
2019-02-25T16:57:07.349Z,38.58
2019-02-25T16:59:39.539Z,38.58
2019-02-25T17:02:14.180Z,38.67
2019-02-25T17:04:45.566Z,38.61
2019-02-25T17:07:18.307Z,38.96
2019-02-25T17:09:51.202Z,38.92
2019-02-25T17:12:25.266Z,39.00
2019-02-25T17:14:57.457Z,38.96
2019-02-25T17:17:29.310Z,39.26
2019-02-25T17:20:02.842Z,39.60
2019-02-25T17:22:34.852Z,39.56
2019-02-25T17:25:09.779Z,39.86
2019-02-25T17:27:42.676Z,39.86
2019-02-25T17:30:20.301Z,40.00
2019-02-25T17:32:53.050Z,40.39
2019-02-25T17:35:27.913Z,40.61
2019-02-25T17:38:03.618Z,40.61
2019-02-25T17:40:34.912Z,40.70
2019-02-25T17:43:08.874Z,41.06
2019-02-25T17:45:41.120Z,41.15
2019-02-25T17:48:15.999Z,41.31
2019-02-25T17:50:47.928Z,41.37
2019-02-25T17:53:22.372Z,41.29
2019-02-25T17:55:57.223Z,41.90
2019-02-25T17:58:30.949Z,42.49
2019-02-25T18:01:05.736Z,42.59
2019-02-25T18:03:39.968Z,42.79
2019-02-25T18:06:14.513Z,42.26
2019-02-25T18:08:48.816Z,41.67
2019-02-25T18:11:24.182Z,42.35
2019-02-25T18:13:57.938Z,42.74
2019-02-25T18:16:33.260Z,42.73
2019-02-25T18:19:09.211Z,43.50
2019-02-25T18:21:43.775Z,44.13
2019-02-25T18:24:17.123Z,44.09
2019-02-25T18:26:50.793Z,43.88
2019-02-25T18:29:25.230Z,43.22
2019-02-25T18:31:58.749Z,43.13
2019-02-25T18:34:34.266Z,43.67
2019-02-25T18:37:09.226Z,44.55
2019-02-25T18:39:45.719Z,43.69
2019-02-25T18:42:20.264Z,44.38
2019-02-25T18:44:53.913Z,45.25
2019-02-25T18:47:27.960Z,45.07
2019-02-25T18:50:01.324Z,45.04
2019-02-25T18:52:37.991Z,44.97
2019-02-25T18:55:12.519Z,44.31
2019-02-25T18:57:46.092Z,44.59
2019-02-25T19:00:42.566Z,44.96
2019-02-25T19:03:13.819Z,45.14
2019-02-25T19:05:46.359Z,44.92
2019-02-25T19:08:22.872Z,44.79
2019-02-25T19:10:57.278Z,45.37
2019-02-25T19:13:32.096Z,46.40
2019-02-25T19:16:05.981Z,46.57
2019-02-25T19:18:41.312Z,47.35
2019-02-25T19:21:14.799Z,48.24
2019-02-25T19:23:48.638Z,47.87
2019-02-25T19:26:23.264Z,46.84
2019-02-25T19:28:58.618Z,47.08
2019-02-25T19:31:32.275Z,47.84
2019-02-25T19:34:06.481Z,49.15
2019-02-25T19:36:41.215Z,49.79
2019-02-25T19:39:17.344Z,50.31
2019-02-25T19:41:51.415Z,51.18
2019-02-25T19:44:27.512Z,50.24
2019-02-25T19:47:01.136Z,49.89
2019-02-25T19:49:36.717Z,49.11
2019-02-25T19:52:12.077Z,48.06
2019-02-25T19:54:48.146Z,47.13
2019-02-25T19:57:23.558Z,47.36
2019-02-25T19:59:57.900Z,47.95
2019-02-25T20:02:32.340Z,48.08
2019-02-25T20:05:09.599Z,47.54
2019-02-25T20:07:41.727Z,47.97
2019-02-25T20:10:15.696Z,48.21
2019-02-25T20:12:50.124Z,48.43
2019-02-25T20:15:25.084Z,47.80
2019-02-25T20:17:55.799Z,47.53
2019-02-25T20:20:34.627Z,47.55
2019-02-25T20:23:08.605Z,47.61
2019-02-25T20:25:44.732Z,47.75
2019-02-25T20:28:18.032Z,47.42
2019-02-25T20:30:51.644Z,47.45
2019-02-25T20:33:30.519Z,47.17
2019-02-25T20:36:01.314Z,48.46
2019-02-25T20:38:34.803Z,50.25
2019-02-25T20:41:07.599Z,51.56
2019-02-25T20:43:42.139Z,52.83
2019-02-25T20:46:13.943Z,54.30
2019-02-25T20:48:48.402Z,55.06
2019-02-25T20:51:19.426Z,56.15
2019-02-25T20:53:52.943Z,56.90
2019-02-25T20:56:26.523Z,57.40
2019-02-25T20:58:59.026Z,58.00
2019-02-25T21:01:35.246Z,59.05
2019-02-25T21:04:05.956Z,59.70
2019-02-25T21:06:39.768Z,60.32
2019-02-25T21:09:11.771Z,60.96
2019-02-25T21:11:44.043Z,61.21
2019-02-25T21:14:16.042Z,61.14
2019-02-25T21:16:47.679Z,60.81
2019-02-25T21:19:20.087Z,60.47
2019-02-25T21:21:55.065Z,60.11
2019-02-25T21:24:26.933Z,60.04
2019-02-25T21:27:01.095Z,60.02
2019-02-25T21:29:34.815Z,60.07
2019-02-25T21:32:10.556Z,60.17
2019-02-25T21:34:46.202Z,60.05
2019-02-25T21:37:16.064Z,59.66
2019-02-25T21:39:48.451Z,59.77
2019-02-25T21:42:22.363Z,60.28
2019-02-25T21:44:54.686Z,60.70
2019-02-25T21:47:30.721Z,61.19
2019-02-25T21:50:04.040Z,61.03
2019-02-25T21:52:36.858Z,61.65
2019-02-25T21:55:11.777Z,62.33
2019-02-25T21:57:44.076Z,62.74
2019-02-25T22:00:18.064Z,62.83
2019-02-25T22:02:52.257Z,62.97
2019-02-25T22:05:24.197Z,63.38
2019-02-25T22:07:57.747Z,64.12
2019-02-25T22:10:29.966Z,64.47
2019-02-25T22:13:04.602Z,65.12
2019-02-25T22:15:36.238Z,65.74
2019-02-25T22:18:11.415Z,66.04
2019-02-25T22:20:45.237Z,66.53
2019-02-25T22:23:16.549Z,66.47
2019-02-25T22:25:48.650Z,66.35
2019-02-25T22:28:20.408Z,65.95
2019-02-25T22:30:53.973Z,65.67
2019-02-25T22:33:27.847Z,65.79
2019-02-25T22:35:59.119Z,66.00
2019-02-25T22:38:30.881Z,66.04
2019-02-25T22:41:04.023Z,66.69
2019-02-25T22:43:36.825Z,66.73
2019-02-25T22:46:11.521Z,66.90
2019-02-25T22:48:44.971Z,66.90
2019-02-25T22:51:19.523Z,66.97
2019-02-25T22:53:50.683Z,67.07
2019-02-25T22:56:23.386Z,67.15
2019-02-25T22:58:56.621Z,67.14
2019-02-25T23:01:29.370Z,67.06
2019-02-25T23:04:01.027Z,67.21
2019-02-25T23:06:32.758Z,67.42
2019-02-25T23:09:04.848Z,67.63
2019-02-25T23:11:39.865Z,67.98
2019-02-25T23:14:13.681Z,68.41
2019-02-25T23:16:48.043Z,68.39
2019-02-25T23:19:22.611Z,68.18
2019-02-25T23:21:58.023Z,68.57
2019-02-25T23:24:34.618Z,68.77
2019-02-25T23:27:07.830Z,68.63
2019-02-25T23:29:41.260Z,68.37
2019-02-25T23:32:17.443Z,67.90
2019-02-25T23:34:52.747Z,67.92
2019-02-25T23:37:28.170Z,68.06
2019-02-25T23:40:07.353Z,68.04
2019-02-25T23:42:44.349Z,68.12
2019-02-25T23:45:20.259Z,68.17
2019-02-25T23:47:57.683Z,68.52
2019-02-25T23:50:31.873Z,68.65
2019-02-25T23:56:00.610Z,68.97
2019-02-25T23:58:38.339Z,69.71
